createdAt,value
2023-04-16T00:00:48.326Z,100284.78
2023-04-16T00:03:34.727Z,100286.94
2023-04-16T00:06:03.336Z,100285.22
2023-04-16T00:08:31.369Z,100285.34
2023-04-16T00:10:59.091Z,100283.50
2023-04-16T00:13:27.924Z,100280.50
2023-04-16T00:15:55.897Z,100288.88
2023-04-16T00:18:23.900Z,100293.41
2023-04-16T00:20:51.832Z,100295.44
2023-04-16T00:23:19.870Z,100290.72
2023-04-16T00:25:47.836Z,100289.56
2023-04-16T00:28:15.769Z,100293.09
2023-04-16T00:30:43.615Z,100288.72
2023-04-16T00:33:11.994Z,100286.75
2023-04-16T00:35:39.874Z,100290.28
2023-04-16T00:38:08.209Z,100293.94
2023-04-16T00:40:35.830Z,100286.31
2023-04-16T00:43:04.324Z,100281.00
2023-04-16T00:45:32.518Z,100284.72
2023-04-16T00:48:01.620Z,100287.53
2023-04-16T00:50:29.643Z,100281.50
2023-04-16T00:52:58.211Z,100285.88
2023-04-16T00:55:26.858Z,100281.50
2023-04-16T00:57:54.773Z,100286.78
2023-04-16T01:00:22.615Z,100283.25
2023-04-16T01:02:50.898Z,100285.00
2023-04-16T01:05:20.521Z,100278.81
2023-04-16T01:07:48.584Z,100288.19
2023-04-16T01:10:16.267Z,100287.31
2023-04-16T01:12:44.217Z,100285.72
2023-04-16T01:15:11.988Z,100277.00
2023-04-16T01:17:40.504Z,100272.03
2023-04-16T01:20:08.443Z,100275.19
2023-04-16T01:22:36.386Z,100281.09
2023-04-16T01:25:04.281Z,100288.28
2023-04-16T01:27:32.615Z,100290.28
2023-04-16T01:30:00.216Z,100289.16
2023-04-16T01:32:39.599Z,100287.00
2023-04-16T01:35:07.500Z,100285.41
2023-04-16T01:37:35.524Z,100288.13
2023-04-16T01:40:03.287Z,100280.91
2023-04-16T01:42:31.249Z,100286.84
2023-04-16T01:44:58.984Z,100298.38
2023-04-16T01:47:27.067Z,100299.28
2023-04-16T01:49:54.857Z,100296.09
2023-04-16T01:52:22.862Z,100298.66
2023-04-16T01:54:50.575Z,100293.34
2023-04-16T01:57:18.520Z,100300.97
2023-04-16T01:59:46.210Z,100303.88
2023-04-16T02:02:16.359Z,100308.31
2023-04-16T02:04:46.184Z,100308.22
2023-04-16T02:07:14.226Z,100309.22
2023-04-16T02:09:42.185Z,100310.59
2023-04-16T02:12:11.848Z,100313.38
2023-04-16T02:14:39.453Z,100322.75
2023-04-16T02:17:07.495Z,100321.44
2023-04-16T02:19:39.548Z,100327.00
2023-04-16T02:22:08.838Z,100325.25
2023-04-16T02:24:36.532Z,100327.31
2023-04-16T02:27:08.385Z,100332.53
2023-04-16T02:29:36.492Z,100336.19
2023-04-16T02:32:12.078Z,100334.50
2023-04-16T02:34:43.717Z,100336.72
2023-04-16T02:37:12.607Z,100333.47
2023-04-16T02:39:40.824Z,100341.47
2023-04-16T02:42:08.747Z,100343.41
2023-04-16T02:44:37.198Z,100348.41
2023-04-16T02:47:05.244Z,100344.69
2023-04-16T02:49:33.046Z,100343.19
2023-04-16T02:52:00.934Z,100344.03
2023-04-16T02:54:28.551Z,100343.19
2023-04-16T02:56:56.917Z,100358.84
2023-04-16T02:59:24.512Z,100353.09
2023-04-16T03:01:52.831Z,100358.50
2023-04-16T03:04:20.643Z,100357.53
2023-04-16T03:06:48.548Z,100359.91
2023-04-16T03:09:16.267Z,100359.81
2023-04-16T03:11:44.344Z,100365.91
2023-04-16T03:14:12.093Z,100373.22
2023-04-16T03:16:39.977Z,100375.63
2023-04-16T03:19:07.933Z,100367.03
2023-04-16T03:21:37.543Z,100373.44
2023-04-16T03:24:05.249Z,100371.84
2023-04-16T03:26:33.143Z,100366.06
2023-04-16T03:29:02.194Z,100368.59
2023-04-16T03:31:32.540Z,100364.13
2023-04-16T03:34:00.914Z,100363.16
2023-04-16T03:36:28.850Z,100360.03
2023-04-16T03:38:57.436Z,100360.78
2023-04-16T03:41:25.488Z,100357.28
2023-04-16T03:43:53.282Z,100358.13
2023-04-16T03:46:21.251Z,100365.53
2023-04-16T03:48:49.511Z,100359.97
2023-04-16T03:51:17.498Z,100360.94
2023-04-16T03:53:45.274Z,100362.63
2023-04-16T03:56:14.672Z,100365.13
2023-04-16T03:58:42.668Z,100362.81
2023-04-16T04:01:10.765Z,100360.94
2023-04-16T04:03:39.597Z,100366.06
2023-04-16T04:06:09.409Z,100353.66
2023-04-16T04:08:37.457Z,100356.91
2023-04-16T04:11:06.654Z,100361.38
2023-04-16T04:13:35.896Z,100367.72
2023-04-16T04:16:05.839Z,100366.47
2023-04-16T04:18:33.573Z,100368.13
2023-04-16T04:21:06.666Z,100382.19
2023-04-16T04:23:35.565Z,100377.47
2023-04-16T04:26:05.668Z,100384.66
2023-04-16T04:28:34.273Z,100387.31
2023-04-16T04:31:02.370Z,100387.59
2023-04-16T04:33:31.794Z,100390.88
2023-04-16T04:35:59.730Z,100397.84
2023-04-16T04:38:28.270Z,100396.69
2023-04-16T04:40:56.328Z,100392.28
2023-04-16T04:43:25.394Z,100394.72
2023-04-16T04:45:53.422Z,100400.75
2023-04-16T04:48:26.248Z,100406.88
2023-04-16T04:50:54.598Z,100425.97
2023-04-16T04:53:22.360Z,100419.66
2023-04-16T04:55:53.161Z,100416.00
2023-04-16T04:58:23.340Z,100430.13
2023-04-16T05:00:51.305Z,100430.78
2023-04-16T05:03:22.285Z,100434.31
2023-04-16T05:05:50.310Z,100427.66
2023-04-16T05:08:17.970Z,100424.78
2023-04-16T05:10:46.048Z,100434.19
2023-04-16T05:13:13.723Z,100436.91
2023-04-16T05:15:41.627Z,100427.84
2023-04-16T05:18:09.839Z,100435.03
2023-04-16T05:20:37.995Z,100436.59
2023-04-16T05:23:05.746Z,100442.53
2023-04-16T05:25:33.864Z,100441.00
2023-04-16T05:28:01.803Z,100432.34
2023-04-16T05:30:29.861Z,100438.88
2023-04-16T05:32:57.595Z,100440.75
2023-04-16T05:35:25.767Z,100446.69
2023-04-16T05:37:53.395Z,100442.72
2023-04-16T05:40:21.640Z,100447.22
2023-04-16T05:42:49.420Z,100449.59
2023-04-16T05:45:17.350Z,100449.47
2023-04-16T05:47:45.311Z,100447.97
2023-04-16T05:50:13.343Z,100455.69
2023-04-16T05:52:40.998Z,100451.69
2023-04-16T05:55:09.371Z,100463.03
2023-04-16T05:57:37.030Z,100466.53
2023-04-16T06:00:05.402Z,100461.16
2023-04-16T06:02:40.307Z,100463.53
2023-04-16T06:05:08.678Z,100469.56
2023-04-16T06:07:36.397Z,100464.19
2023-04-16T06:10:04.569Z,100466.81
2023-04-16T06:12:32.234Z,100466.34
2023-04-16T06:15:01.370Z,100466.22
2023-04-16T06:17:29.119Z,100465.09
2023-04-16T06:19:57.037Z,100468.38
2023-04-16T06:22:25.342Z,100465.03
2023-04-16T06:24:53.958Z,100468.66
2023-04-16T06:27:21.555Z,100467.38
2023-04-16T06:29:49.722Z,100462.50
2023-04-16T06:32:17.954Z,100464.97
2023-04-16T06:34:45.888Z,100465.63
2023-04-16T06:37:13.549Z,100473.63
2023-04-16T06:39:41.507Z,100465.25
2023-04-16T06:42:09.222Z,100462.47
2023-04-16T06:44:37.191Z,100466.22
2023-04-16T06:47:04.926Z,100478.06
2023-04-16T06:49:33.011Z,100479.88
2023-04-16T06:52:00.883Z,100479.88
2023-04-16T06:54:28.801Z,100477.31
2023-04-16T06:56:56.488Z,100483.41
2023-04-16T06:59:24.586Z,100483.25
2023-04-16T07:01:53.054Z,100488.16
2023-04-16T07:04:21.866Z,100489.97
2023-04-16T07:06:49.650Z,100488.28
2023-04-16T07:09:20.575Z,100488.59
2023-04-16T07:11:48.370Z,100494.38
2023-04-16T07:14:16.434Z,100498.09
2023-04-16T07:16:44.132Z,100506.97
2023-04-16T07:19:12.271Z,100502.94
2023-04-16T07:21:42.054Z,100506.34
2023-04-16T07:24:14.021Z,100506.66
2023-04-16T07:26:41.737Z,100506.88
2023-04-16T07:29:09.927Z,100510.91
2023-04-16T07:31:38.556Z,100515.00
2023-04-16T07:34:06.639Z,100514.28
2023-04-16T07:36:34.360Z,100519.28
2023-04-16T07:39:02.414Z,100523.28
2023-04-16T07:41:30.139Z,100524.63
2023-04-16T07:43:58.415Z,100531.88
2023-04-16T07:46:30.458Z,100530.41
2023-04-16T07:49:01.550Z,100528.63
2023-04-16T07:51:29.215Z,100536.78
2023-04-16T07:53:57.086Z,100540.03
2023-04-16T07:56:24.817Z,100536.16
2023-04-16T07:58:52.897Z,100531.88
2023-04-16T08:01:21.087Z,100536.78
2023-04-16T08:03:49.282Z,100541.88
2023-04-16T08:06:17.038Z,100548.72
2023-04-16T08:08:44.982Z,100550.31
2023-04-16T08:11:12.632Z,100550.19
2023-04-16T08:13:40.590Z,100557.63
2023-04-16T08:16:08.381Z,100554.31
2023-04-16T08:18:36.962Z,100562.19
2023-04-16T08:21:04.733Z,100562.13
2023-04-16T08:23:33.005Z,100561.03
2023-04-16T08:26:02.265Z,100567.25
2023-04-16T08:28:30.370Z,100566.09
2023-04-16T08:30:58.115Z,100567.75
2023-04-16T08:33:26.513Z,100570.09
2023-04-16T08:35:54.121Z,100565.31
2023-04-16T08:38:22.183Z,100567.41
2023-04-16T08:40:49.885Z,100571.09
2023-04-16T08:43:19.340Z,100572.75
2023-04-16T08:45:48.984Z,100573.53
2023-04-16T08:48:20.720Z,100570.97
2023-04-16T08:50:52.426Z,100567.66
2023-04-16T08:53:49.409Z,100575.94
2023-04-16T08:56:23.019Z,100581.72
2023-04-16T08:58:54.865Z,100579.22
2023-04-16T09:01:24.972Z,100581.47
2023-04-16T09:03:54.038Z,100577.09
2023-04-16T09:06:22.307Z,100582.69
2023-04-16T09:08:50.957Z,100590.09
2023-04-16T09:11:19.443Z,100585.94
2023-04-16T09:13:48.116Z,100587.72
2023-04-16T09:16:16.189Z,100596.56
2023-04-16T09:18:44.179Z,100597.53
2023-04-16T09:21:12.673Z,100593.41
2023-04-16T09:23:41.962Z,100592.94
2023-04-16T09:26:09.602Z,100593.78
2023-04-16T09:28:41.080Z,100604.63
2023-04-16T09:31:19.368Z,100608.91
2023-04-16T09:34:08.652Z,100606.94
2023-04-16T09:36:37.165Z,100610.69
2023-04-16T09:39:05.179Z,100610.19
2023-04-16T09:41:39.559Z,100606.31
2023-04-16T09:44:07.489Z,100612.88
2023-04-16T09:46:36.895Z,100615.09
2023-04-16T09:49:16.178Z,100615.53
2023-04-16T09:51:45.330Z,100620.00
2023-04-16T09:54:13.746Z,100618.28
2023-04-16T09:56:46.405Z,100624.69
2023-04-16T09:59:21.845Z,100621.06
2023-04-16T10:01:50.884Z,100626.22
2023-04-16T10:04:19.085Z,100620.59
2023-04-16T10:07:04.700Z,100632.28
2023-04-16T10:09:37.652Z,100632.97
2023-04-16T10:12:06.842Z,100621.72
2023-04-16T10:14:35.792Z,100623.53
2023-04-16T10:17:06.223Z,100633.47
2023-04-16T10:19:35.515Z,100631.25
2023-04-16T10:22:03.834Z,100635.25
2023-04-16T10:24:34.013Z,100638.75
2023-04-16T10:27:02.608Z,100644.81
2023-04-16T10:29:31.702Z,100649.66
2023-04-16T10:32:01.175Z,100645.94
2023-04-16T10:34:30.001Z,100647.19
2023-04-16T10:36:57.653Z,100655.88
2023-04-16T10:39:28.476Z,100646.25
2023-04-16T10:42:09.555Z,100650.84
2023-04-16T10:44:37.665Z,100645.38
2023-04-16T10:47:13.027Z,100648.81
2023-04-16T10:49:42.472Z,100650.97
2023-04-16T10:52:12.248Z,100659.09
2023-04-16T10:54:41.304Z,100656.16
2023-04-16T10:57:15.102Z,100652.53
2023-04-16T10:59:44.212Z,100646.97
2023-04-16T11:02:17.790Z,100651.66
2023-04-16T11:04:48.197Z,100657.97
2023-04-16T11:07:19.608Z,100660.53
2023-04-16T11:10:02.089Z,100657.09
2023-04-16T11:12:30.307Z,100657.44
2023-04-16T11:15:13.001Z,100653.97
2023-04-16T11:17:47.636Z,100659.81
2023-04-16T11:20:21.089Z,100654.84
2023-04-16T11:22:50.693Z,100659.69
2023-04-16T11:25:30.234Z,100672.25
2023-04-16T11:28:01.404Z,100664.78
2023-04-16T11:30:34.600Z,100658.88
2023-04-16T11:33:06.021Z,100666.16
2023-04-16T11:35:34.092Z,100658.84
2023-04-16T11:38:02.320Z,100660.00
2023-04-16T11:40:34.303Z,100664.34
2023-04-16T11:43:04.129Z,100661.28
2023-04-16T11:45:32.101Z,100655.59
2023-04-16T11:47:59.908Z,100661.22
2023-04-16T11:50:28.877Z,100656.94
2023-04-16T11:53:03.635Z,100651.66
2023-04-16T11:55:31.762Z,100645.97
2023-04-16T11:58:13.090Z,100647.84
2023-04-16T12:00:41.666Z,100648.88
2023-04-16T12:03:10.041Z,100657.03
2023-04-16T12:05:39.822Z,100650.44
2023-04-16T12:08:10.026Z,100647.56
2023-04-16T12:10:54.912Z,100642.19
2023-04-16T12:13:23.386Z,100646.44
2023-04-16T12:15:53.926Z,100646.78
2023-04-16T12:18:24.032Z,100637.50
2023-04-16T12:20:52.121Z,100641.50
2023-04-16T12:23:28.911Z,100631.16
2023-04-16T12:26:02.540Z,100629.69
2023-04-16T12:28:35.962Z,100623.34
2023-04-16T12:31:04.497Z,100630.31
2023-04-16T12:33:32.362Z,100633.00
2023-04-16T12:36:01.625Z,100630.06
2023-04-16T12:38:29.930Z,100628.09
2023-04-16T12:40:58.472Z,100626.16
2023-04-16T12:43:26.564Z,100620.59
2023-04-16T12:45:54.720Z,100620.44
2023-04-16T12:48:22.402Z,100619.66
2023-04-16T12:50:53.245Z,100616.56
2023-04-16T12:53:20.992Z,100615.78
2023-04-16T12:55:49.156Z,100624.72
2023-04-16T12:58:16.801Z,100615.03
2023-04-16T13:00:44.895Z,100618.47
2023-04-16T13:03:12.732Z,100627.03
2023-04-16T13:05:41.489Z,100617.47
2023-04-16T13:08:09.233Z,100619.09
2023-04-16T13:10:37.373Z,100623.81
2023-04-16T13:13:05.554Z,100622.41
2023-04-16T13:15:33.537Z,100617.69
2023-04-16T13:18:01.862Z,100613.09
2023-04-16T13:20:29.964Z,100618.19
2023-04-16T13:22:57.585Z,100616.94
2023-04-16T13:25:25.784Z,100618.22
2023-04-16T13:27:53.496Z,100616.75
2023-04-16T13:30:21.444Z,100612.78
2023-04-16T13:32:49.134Z,100619.94
2023-04-16T13:35:17.198Z,100615.56
2023-04-16T13:37:44.979Z,100617.34
2023-04-16T13:40:12.984Z,100618.91
2023-04-16T13:42:40.719Z,100622.41
2023-04-16T13:45:11.965Z,100621.19
2023-04-16T13:47:44.625Z,100620.63
2023-04-16T13:50:12.690Z,100618.38
2023-04-16T13:52:40.361Z,100614.00
2023-04-16T13:55:09.690Z,100620.16
2023-04-16T13:57:37.483Z,100620.84
2023-04-16T14:00:06.042Z,100617.81
2023-04-16T14:02:33.803Z,100619.13
2023-04-16T14:05:01.952Z,100621.63
2023-04-16T14:07:29.727Z,100626.00
2023-04-16T14:09:57.655Z,100617.84
2023-04-16T14:12:25.451Z,100623.59
2023-04-16T14:14:53.588Z,100622.13
2023-04-16T14:17:21.323Z,100625.22
2023-04-16T14:19:49.588Z,100624.78
2023-04-16T14:22:18.018Z,100629.13
2023-04-16T14:24:46.125Z,100622.91
2023-04-16T14:27:13.765Z,100622.56
2023-04-16T14:29:41.727Z,100622.41
2023-04-16T14:32:09.463Z,100623.41
2023-04-16T14:34:37.344Z,100622.50
2023-04-16T14:37:05.705Z,100624.81
2023-04-16T14:39:34.751Z,100624.06
2023-04-16T14:42:03.217Z,100618.69
2023-04-16T14:44:31.301Z,100622.66
2023-04-16T14:46:59.276Z,100622.09
2023-04-16T14:49:27.186Z,100622.91
2023-04-16T14:51:54.938Z,100626.31
2023-04-16T14:54:23.181Z,100627.56
2023-04-16T14:56:53.518Z,100633.31
2023-04-16T14:59:21.720Z,100633.84
2023-04-16T15:01:49.736Z,100636.91
2023-04-16T15:04:18.225Z,100636.25
2023-04-16T15:06:46.581Z,100637.44
2023-04-16T15:09:14.891Z,100641.69
2023-04-16T15:11:42.533Z,100635.03
2023-04-16T15:14:10.927Z,100640.00
2023-04-16T15:16:38.871Z,100638.88
2023-04-16T15:19:07.060Z,100638.13
2023-04-16T15:21:34.720Z,100635.97
2023-04-16T15:24:03.035Z,100639.03
2023-04-16T15:26:31.348Z,100641.97
2023-04-16T15:28:59.311Z,100638.50
2023-04-16T15:31:27.191Z,100642.00
2023-04-16T15:33:56.229Z,100645.59
2023-04-16T15:36:24.024Z,100644.19
2023-04-16T15:38:51.970Z,100648.03
2023-04-16T15:41:19.751Z,100649.75
2023-04-16T15:43:47.781Z,100647.84
2023-04-16T15:46:15.651Z,100651.47
2023-04-16T15:48:43.595Z,100646.81
2023-04-16T15:51:11.592Z,100644.72
2023-04-16T15:53:39.663Z,100647.69
2023-04-16T15:56:07.402Z,100649.16
2023-04-16T15:58:35.377Z,100655.66
2023-04-16T16:01:03.098Z,100653.84
2023-04-16T16:03:33.103Z,100656.63
2023-04-16T16:06:03.960Z,100661.19
2023-04-16T16:08:35.394Z,100665.22
2023-04-16T16:11:03.348Z,100665.78
2023-04-16T16:13:31.559Z,100661.25
2023-04-16T16:15:59.376Z,100670.22
2023-04-16T16:18:27.576Z,100673.78
2023-04-16T16:20:57.921Z,100670.06
2023-04-16T16:23:27.126Z,100676.69
2023-04-16T16:25:55.385Z,100686.66
2023-04-16T16:28:25.124Z,100680.75
2023-04-16T16:30:55.818Z,100685.03
2023-04-16T16:33:23.822Z,100685.09
2023-04-16T16:35:51.608Z,100687.34
2023-04-16T16:38:19.884Z,100687.59
2023-04-16T16:40:47.742Z,100691.97
2023-04-16T16:43:16.346Z,100695.78
2023-04-16T16:45:44.316Z,100695.41
2023-04-16T16:48:12.439Z,100706.44
2023-04-16T16:50:40.273Z,100700.31
2023-04-16T16:53:08.257Z,100699.91
2023-04-16T16:55:36.108Z,100714.06
2023-04-16T16:58:04.217Z,100709.84
2023-04-16T17:00:31.900Z,100717.53
2023-04-16T17:02:59.998Z,100719.63
2023-04-16T17:05:27.877Z,100720.53
2023-04-16T17:07:55.966Z,100726.47
2023-04-16T17:10:23.628Z,100728.69
2023-04-16T17:12:51.939Z,100728.69
2023-04-16T17:15:21.788Z,100736.38
2023-04-16T17:17:50.215Z,100740.47
2023-04-16T17:20:18.155Z,100743.56
2023-04-16T17:22:46.209Z,100745.28
2023-04-16T17:25:14.167Z,100747.78
2023-04-16T17:27:42.182Z,100746.16
2023-04-16T17:30:10.211Z,100749.91
2023-04-16T17:32:38.200Z,100748.50
2023-04-16T17:35:06.932Z,100751.28
2023-04-16T17:37:34.913Z,100761.22
2023-04-16T17:40:07.428Z,100758.13
2023-04-16T17:42:36.250Z,100763.41
2023-04-16T17:45:04.403Z,100763.53
2023-04-16T17:47:34.330Z,100761.94
2023-04-16T17:50:02.509Z,100764.22
2023-04-16T17:52:30.597Z,100761.50
2023-04-16T17:55:01.473Z,100762.06
2023-04-16T17:57:30.136Z,100773.03
2023-04-16T17:59:58.211Z,100767.81
2023-04-16T18:02:26.498Z,100773.13
2023-04-16T18:04:54.649Z,100775.19
2023-04-16T18:07:22.635Z,100776.09
2023-04-16T18:09:50.328Z,100776.56
2023-04-16T18:12:18.276Z,100775.72
2023-04-16T18:14:46.216Z,100777.69
2023-04-16T18:17:14.218Z,100784.97
2023-04-16T18:19:43.757Z,100776.94
2023-04-16T18:22:13.291Z,100783.13
2023-04-16T18:24:41.217Z,100785.09
2023-04-16T18:27:09.325Z,100792.03
2023-04-16T18:29:38.926Z,100779.13
2023-04-16T18:32:11.726Z,100785.34
2023-04-16T18:34:40.193Z,100790.56
2023-04-16T18:37:08.208Z,100790.72
2023-04-16T18:39:36.889Z,100788.94
2023-04-16T18:42:05.246Z,100793.63
2023-04-16T18:44:32.963Z,100796.31
2023-04-16T18:47:01.033Z,100792.88
2023-04-16T18:49:28.920Z,100797.34
2023-04-16T18:51:57.157Z,100795.75
2023-04-16T18:54:24.831Z,100794.94
2023-04-16T18:56:52.796Z,100797.94
2023-04-16T18:59:20.397Z,100797.84
2023-04-16T19:01:48.428Z,100802.16
2023-04-16T19:04:16.178Z,100803.97
2023-04-16T19:06:45.000Z,100799.31
2023-04-16T19:09:13.114Z,100802.03
2023-04-16T19:11:41.575Z,100809.00
2023-04-16T19:14:09.517Z,100812.50
2023-04-16T19:16:38.946Z,100809.84
2023-04-16T19:19:06.623Z,100802.59
2023-04-16T19:21:35.532Z,100804.53
2023-04-16T19:24:03.334Z,100808.78
2023-04-16T19:26:31.504Z,100805.38
2023-04-16T19:28:59.569Z,100806.84
2023-04-16T19:31:27.907Z,100804.28
2023-04-16T19:33:55.639Z,100815.06
2023-04-16T19:36:23.592Z,100806.19
2023-04-16T19:38:51.430Z,100805.28
2023-04-16T19:41:19.372Z,100805.28
2023-04-16T19:43:47.146Z,100814.19
2023-04-16T19:46:15.563Z,100811.44
2023-04-16T19:48:43.428Z,100812.66
2023-04-16T19:51:11.324Z,100810.78
2023-04-16T19:53:39.043Z,100810.75
2023-04-16T19:56:06.974Z,100811.00
2023-04-16T19:58:34.741Z,100816.09
2023-04-16T20:01:08.025Z,100811.81
2023-04-16T20:03:35.844Z,100817.22
2023-04-16T20:06:05.450Z,100812.13
2023-04-16T20:08:33.127Z,100819.00
2023-04-16T20:11:01.254Z,100810.16
2023-04-16T20:13:28.919Z,100810.09
2023-04-16T20:15:57.542Z,100812.78
2023-04-16T20:18:28.272Z,100818.84
2023-04-16T20:20:56.411Z,100823.31
2023-04-16T20:23:24.032Z,100811.91
2023-04-16T20:25:52.382Z,100814.66
2023-04-16T20:28:21.546Z,100821.34
2023-04-16T20:30:50.925Z,100808.72
2023-04-16T20:33:18.736Z,100804.59
2023-04-16T20:35:46.914Z,100809.91
2023-04-16T20:38:14.950Z,100807.50
2023-04-16T20:40:44.671Z,100811.91
2023-04-16T20:43:14.395Z,100804.22
2023-04-16T20:45:45.921Z,100801.63
2023-04-16T20:48:13.686Z,100805.28
2023-04-16T20:50:41.853Z,100806.38
2023-04-16T20:53:09.560Z,100804.41
2023-04-16T20:55:37.472Z,100805.28
2023-04-16T20:58:05.112Z,100803.44
2023-04-16T21:00:33.063Z,100800.34
2023-04-16T21:03:01.048Z,100801.22
2023-04-16T21:05:30.087Z,100798.56
2023-04-16T21:07:57.810Z,100804.72
2023-04-16T21:10:26.092Z,100797.84
2023-04-16T21:12:53.736Z,100809.53
2023-04-16T21:15:21.816Z,100812.97
2023-04-16T21:17:49.907Z,100815.78
2023-04-16T21:20:18.058Z,100814.63
2023-04-16T21:22:45.766Z,100806.03
2023-04-16T21:25:13.706Z,100818.06
2023-04-16T21:27:41.670Z,100814.31
2023-04-16T21:30:10.169Z,100810.94
2023-04-16T21:32:38.127Z,100817.34
2023-04-16T21:35:06.861Z,100818.06
2023-04-16T21:37:34.576Z,100815.63
2023-04-16T21:40:04.940Z,100807.00
2023-04-16T21:42:33.401Z,100813.47
2023-04-16T21:45:01.359Z,100813.09
2023-04-16T21:47:29.019Z,100814.88
2023-04-16T21:49:57.029Z,100809.69
2023-04-16T21:52:24.866Z,100811.13
2023-04-16T21:54:52.942Z,100816.53
2023-04-16T21:57:20.787Z,100815.38
2023-04-16T21:59:48.807Z,100816.16
2023-04-16T22:02:16.668Z,100813.78
2023-04-16T22:04:44.698Z,100814.56
2023-04-16T22:07:12.437Z,100816.22
2023-04-16T22:09:40.883Z,100813.66
2023-04-16T22:12:11.454Z,100814.75
2023-04-16T22:14:46.181Z,100822.50
2023-04-16T22:17:23.817Z,100815.56
2023-04-16T22:19:53.536Z,100830.41
2023-04-16T22:22:21.881Z,100828.19
2023-04-16T22:24:50.042Z,100827.41
2023-04-16T22:27:17.847Z,100817.88
2023-04-16T22:29:46.121Z,100816.84
2023-04-16T22:32:13.824Z,100825.75
2023-04-16T22:34:41.745Z,100825.59
2023-04-16T22:37:09.473Z,100824.06
2023-04-16T22:39:37.408Z,100825.78
2023-04-16T22:42:05.170Z,100823.41
2023-04-16T22:44:33.014Z,100826.03
2023-04-16T22:47:00.671Z,100825.72
2023-04-16T22:49:33.109Z,100823.97
2023-04-16T22:52:00.968Z,100816.91
2023-04-16T22:54:33.167Z,100820.69
2023-04-16T22:57:01.126Z,100816.22
2023-04-16T22:59:29.145Z,100818.47
2023-04-16T23:01:56.935Z,100817.25
2023-04-16T23:04:24.927Z,100823.25
2023-04-16T23:06:52.632Z,100813.84
2023-04-16T23:09:22.443Z,100809.59
2023-04-16T23:11:50.254Z,100807.16
2023-04-16T23:14:18.669Z,100803.09
2023-04-16T23:16:46.467Z,100805.13
2023-04-16T23:19:15.699Z,100807.16
2023-04-16T23:21:43.341Z,100809.03
2023-04-16T23:24:11.391Z,100810.97
2023-04-16T23:26:39.008Z,100812.81
2023-04-16T23:29:07.569Z,100805.13
2023-04-16T23:31:35.277Z,100804.50
2023-04-16T23:34:03.515Z,100804.31
2023-04-16T23:36:31.548Z,100801.31
2023-04-16T23:38:59.528Z,100808.63
2023-04-16T23:41:27.237Z,100796.28
2023-04-16T23:43:55.221Z,100793.34
2023-04-16T23:46:22.853Z,100791.41
2023-04-16T23:48:50.887Z,100794.47
2023-04-16T23:51:18.573Z,100785.03
2023-04-16T23:53:46.490Z,100787.03
2023-04-16T23:56:15.471Z,100789.41
2023-04-16T23:58:43.550Z,100781.63
